Emerald Coast — WDC9127 — position and weather

sailwx.info

Track history (hours):
 
Tides and Currents Weather Stations Pressure Air Temp Water Temp Dewpoint Dewpoint Depression Visibility Wind Speed Wind Dir Waves Ship Positions

Emerald Coast

Owner: Dann Marine Towing, LC, Chesapeake City, MD. More information available from US FCC via Universal Licensing System and Coast Guard Vessel Documentation Center.

Last reported at 2017-Aug-21 07:59 UTC. Time now 2017-Aug-21 08:26 UTC.
Position N 40°40' W 074°00'.

Length 24 m; draft 3 m.

Type: Tug. MMSI: 367097920.

Date/timePositionNaut miles runAvg speedWind from/ knotsBaromVisibWave heightAir tempDewpointWater temp
2017-Aug-21 07:59N 40°40' W 074°00'0 0.0
2017-Aug-21 07:29N 40°40' W 074°00'0 0.0
2017-Aug-21 06:59N 40°40' W 074°00'0 0.0
2017-Aug-21 06:29N 40°40' W 074°00'0 0.0
2017-Aug-21 05:59N 40°40' W 074°00'0 0.0
2017-Aug-21 05:29N 40°40' W 074°00'0 0.0
2017-Aug-21 04:59N 40°40' W 074°00'0 0.0
2017-Aug-21 04:29N 40°40' W 074°00'0 0.0
2017-Aug-21 03:59N 40°40' W 074°00'0 0.0
2017-Aug-21 03:29N 40°40' W 074°00'0 0.0
2017-Aug-21 02:59N 40°40' W 074°00'0 0.0
2017-Aug-21 02:29N 40°40' W 074°00'0 0.0
2017-Aug-21 01:59N 40°40' W 074°00'0 0.0
2017-Aug-21 01:29N 40°40' W 074°00'0 0.0
2017-Aug-21 00:59N 40°40' W 074°00'0 0.0
2017-Aug-21 00:29N 40°40' W 074°00'0 0.0
2017-Aug-20 23:59N 40°40' W 074°00'0 0.0
2017-Aug-20 23:29N 40°40' W 074°00'0 0.0
2017-Aug-20 22:59N 40°40' W 074°00'0 0.0
2017-Aug-20 22:29N 40°40' W 074°00'0 0.0
2017-Aug-20 21:59N 40°40' W 074°00'0 0.0
2017-Aug-20 21:26N 40°40' W 074°00'0 0.0
2017-Aug-20 20:56N 40°40' W 074°00'0 0.0
2017-Aug-20 20:23N 40°40' W 074°00'0 0.0
2017-Aug-20 19:41N 40°40' W 074°00'0 0.0
2017-Aug-20 19:29N 40°40' W 074°00'0 0.0
2017-Aug-20 18:56N 40°40' W 074°00'0 0.0
2017-Aug-20 18:29N 40°40' W 074°00'0 0.0
2017-Aug-20 17:44N 40°40' W 074°00'0 0.0
2017-Aug-20 17:26N 40°40' W 074°00'0 0.0
2017-Aug-20 16:56N 40°40' W 074°00'0 0.2
2017-Aug-20 16:28N 40°40' W 074°00'0 0.0
2017-Aug-20 16:01N 40°40' W 074°00'0 0.0
2017-Aug-20 15:25N 40°40' W 074°00'0 0.2
2017-Aug-20 15:00N 40°40' W 074°00'3 5.3
2017-Aug-20 14:31N 40°39' W 074°03'4 8.3
2017-Aug-20 14:00N 40°38' W 074°09'3 6.6
2017-Aug-20 13:31N 40°42' W 074°08'0 0.3
2017-Aug-20 12:41N 40°42' W 074°09'0 0.0
2017-Aug-20 12:29N 40°42' W 074°09'0 0.0
2017-Aug-20 10:59N 40°42' W 074°09'0 0.1
2017-Aug-20 10:28N 40°42' W 074°09'2 3.4
2017-Aug-20 10:00N 40°40' W 074°08'2 3.5
2017-Aug-20 09:30N 40°39' W 074°07'3 6.9
2017-Aug-20 09:00N 40°40' W 074°03'2 3.0
2017-Aug-20 08:30N 40°40' W 074°01'1 1.7
2017-Aug-20 08:00N 40°40' W 074°00'0 0.0
2017-Aug-20 07:30N 40°40' W 074°00'0 0.0
2017-Aug-20 06:57N 40°40' W 074°00'0 0.0
2017-Aug-20 06:26N 40°40' W 074°00'0 0.0
2017-Aug-20 05:59N 40°40' W 074°00'0 0.0
2017-Aug-20 05:26N 40°40' W 074°00'0 0.0
2017-Aug-20 04:59N 40°40' W 074°00'0 0.0
2017-Aug-20 04:27N 40°40' W 074°00'0 0.0
2017-Aug-20 03:59N 40°40' W 074°00'0 0.0
2017-Aug-20 03:27N 40°40' W 074°00'0 0.0
2017-Aug-20 02:59N 40°40' W 074°00'0 0.0
2017-Aug-20 02:30N 40°40' W 074°00'0 0.0
2017-Aug-20 01:59N 40°40' W 074°00'0 0.0
2017-Aug-20 01:29N 40°40' W 074°00'0 0.0
2017-Aug-20 00:59N 40°40' W 074°00'0 0.0
2017-Aug-20 00:29N 40°40' W 074°00'0 0.0
2017-Aug-19 23:59N 40°40' W 074°00'0 0.0
2017-Aug-19 23:29N 40°40' W 074°00'0 0.0
2017-Aug-19 22:56N 40°40' W 074°00'0 0.0
2017-Aug-19 22:29N 40°40' W 074°00'0 0.0
2017-Aug-19 21:56N 40°40' W 074°00'0 0.0
2017-Aug-19 21:29N 40°40' W 074°00'0 0.0
2017-Aug-19 20:59N 40°40' W 074°00'0 0.0
2017-Aug-19 20:29N 40°40' W 074°00'0 0.0
2017-Aug-19 19:59N 40°40' W 074°00'0 0.0
2017-Aug-19 19:26N 40°40' W 074°00'0 0.0
2017-Aug-19 18:56N 40°40' W 074°00'0 0.0
2017-Aug-19 18:29N 40°40' W 074°00'0 0.0
2017-Aug-19 17:56N 40°40' W 074°00'0 0.0
2017-Aug-19 17:26N 40°40' W 074°00'0 0.0
2017-Aug-19 16:56N 40°40' W 074°00'0 0.0
2017-Aug-19 16:29N 40°40' W 074°00'2 4.4
2017-Aug-19 15:59N 40°40' W 074°03'1 2.1
2017-Aug-19 15:30N 40°40' W 074°04'1 2.2
2017-Aug-19 15:01N 40°39' W 074°05'3 2.8
2017-Aug-19 14:01N 40°39' W 074°02'1 2.8
2017-Aug-19 13:29N 40°40' W 074°00'0 0.0
2017-Aug-19 12:59N 40°40' W 074°00'0 0.0
2017-Aug-19 12:29N 40°40' W 074°00'0 0.0
2017-Aug-19 11:59N 40°40' W 074°00'0 0.0
2017-Aug-19 11:29N 40°40' W 074°00'0 0.0
2017-Aug-19 10:59N 40°40' W 074°00'0 0.0
2017-Aug-19 10:29N 40°40' W 074°00'0 0.0
2017-Aug-19 09:59N 40°40' W 074°00'0 0.0
2017-Aug-19 09:29N 40°40' W 074°00'0 0.0
2017-Aug-19 08:59N 40°40' W 074°00'0 0.0
2017-Aug-19 08:29N 40°40' W 074°00'0 0.0
2017-Aug-19 08:00N 40°40' W 074°00'1 1.9
2017-Aug-19 07:30N 40°40' W 074°01'2 2.9
2017-Aug-19 06:59N 40°39' W 074°03'1 2.4
2017-Aug-19 06:30N 40°38' W 074°04'0 0.1
2017-Aug-19 06:00N 40°38' W 074°04'0 0.0
2017-Aug-19 05:30N 40°38' W 074°04'0 0.0
2017-Aug-19 05:00N 40°38' W 074°04'0 0.1
2017-Aug-19 04:30N 40°38' W 074°04'0 0.1
2017-Aug-19 04:00N 40°38' W 074°04'0 0.0
2017-Aug-19 03:30N 40°38' W 074°04'0 0.0
2017-Aug-19 03:00N 40°38' W 074°04'0 0.0
2017-Aug-19 02:30N 40°38' W 074°04'0 0.0
2017-Aug-19 02:00N 40°38' W 074°04'0 0.0
2017-Aug-19 01:30N 40°38' W 074°04'3 6.7
2017-Aug-19 01:01N 40°41' W 074°02'4 7.7
2017-Aug-19 00:30N 40°45' W 074°01'3 6.5
2017-Aug-19 00:00N 40°48' W 073°59'3 5.9
2017-Aug-18 23:30N 40°50' W 073°57'3 5.2
2017-Aug-18 23:00N 40°53' W 073°56'3 4.5
2017-Aug-18 22:18N 40°56' W 073°54'0 0.2
2017-Aug-18 21:57N 40°56' W 073°54'510.9
2017-Aug-18 21:30N 40°51' W 073°57'611.1
2017-Aug-18 21:00N 40°46' W 074°00'510.3
2017-Aug-18 20:30N 40°41' W 074°02'4 8.3
2017-Aug-18 20:00N 40°39' W 074°07'4 7.8
2017-Aug-18 19:30N 40°38' W 074°12'2 1.4
2017-Aug-18 18:08N 40°37' W 074°12'1 7.1
2017-Aug-18 17:59N 40°38' W 074°12'0 0.2
2017-Aug-18 17:16N 40°38' W 074°12'0 0.5
2017-Aug-18 16:58N 40°38' W 074°12'3 7.6
2017-Aug-18 16:30N 40°39' W 074°08'4 8.1
2017-Aug-18 16:00N 40°40' W 074°03'2 3.1
2017-Aug-18 15:30N 40°40' W 074°05'0 0.1
2017-Aug-18 14:59N 40°40' W 074°05'0 0.0
2017-Aug-18 14:29N 40°40' W 074°05'0 0.0
2017-Aug-18 13:29N 40°40' W 074°05'2 3.7
2017-Aug-18 13:00N 40°39' W 074°03'3 2.8
2017-Aug-18 11:59N 40°38' W 074°07'0 0.0
2017-Aug-18 11:20N 40°38' W 074°07'0 0.0
2017-Aug-18 10:53N 40°38' W 074°07'0 0.1
2017-Aug-18 10:21N 40°39' W 074°07'3 7.8
2017-Aug-18 10:00N 40°39' W 074°04'3 5.9
2017-Aug-18 09:29N 40°40' W 074°00'0 0.0
2017-Aug-18 08:59N 40°40' W 074°00'0 0.0
2017-Aug-18 08:29N 40°40' W 074°00'0 0.0
2017-Aug-18 07:59N 40°40' W 074°00'0 0.0
2017-Aug-18 07:29N 40°40' W 074°00'0 0.0
2017-Aug-18 06:59N 40°40' W 074°00'0 0.0
2017-Aug-18 06:29N 40°40' W 074°00'0 0.0
2017-Aug-18 05:59N 40°40' W 074°00'0 0.0
2017-Aug-18 05:29N 40°40' W 074°00'0 0.0
2017-Aug-18 04:59N 40°40' W 074°00'0 0.0
2017-Aug-18 04:29N 40°40' W 074°00'0 0.0
2017-Aug-18 03:59N 40°40' W 074°00'0 0.0
2017-Aug-18 03:29N 40°40' W 074°00'0 0.0
2017-Aug-18 02:59N 40°40' W 074°00'0 0.6
2017-Aug-18 02:29N 40°40' W 074°00'0 0.3
2017-Aug-18 02:00N 40°40' W 074°00'1 1.9
2017-Aug-18 01:30N 40°39' W 074°01'3 6.4
2017-Aug-18 01:00N 40°39' W 074°06'0 0.3
2017-Aug-18 00:30N 40°39' W 074°06'0 0.7
2017-Aug-18 00:00N 40°39' W 074°05'4 7.7
2017-Aug-17 23:31N 40°40' W 074°00'0 0.8
2017-Aug-17 22:58N 40°40' W 074°00'0 0.0
2017-Aug-17 22:28N 40°40' W 074°00'0 0.0
2017-Aug-17 21:58N 40°40' W 074°00'0 0.0
2017-Aug-17 21:28N 40°40' W 074°00'0 0.0
2017-Aug-17 20:58N 40°40' W 074°00'0 0.0
2017-Aug-17 20:28N 40°40' W 074°00'0 0.0
2017-Aug-17 19:58N 40°40' W 074°00'1 3.0
2017-Aug-17 19:30N 40°40' W 074°02'1 1.6
2017-Aug-17 18:58N 40°41' W 074°03'0 0.2
2017-Aug-17 18:28N 40°41' W 074°03'2 4.3
2017-Aug-17 18:01N 40°39' W 074°05'2 3.8
2017-Aug-17 17:30N 40°39' W 074°07'2 3.1
2017-Aug-17 17:01N 40°39' W 074°09'2 2.2
2017-Aug-17 15:56N 40°42' W 074°09'3 7.2
2017-Aug-17 15:30N 40°39' W 074°09'1 0.7
2017-Aug-17 13:43N 40°38' W 074°07'0 0.0
2017-Aug-17 12:25N 40°38' W 074°07'3 6.0
2017-Aug-17 12:00N 40°39' W 074°11'2 2.5
2017-Aug-17 11:23N 40°38' W 074°12'0 0.1
2017-Aug-17 10:59N 40°38' W 074°12'2 3.6
2017-Aug-17 10:31N 40°36' W 074°12'0 0.3
2017-Aug-17 09:58N 40°36' W 074°12'3 5.9
2017-Aug-17 09:30N 40°39' W 074°11'4 7.1
2017-Aug-17 09:00N 40°39' W 074°06'0 0.1
2017-Aug-17 08:30N 40°39' W 074°06'2 3.1
2017-Aug-17 08:01N 40°39' W 074°04'2 3.4
2017-Aug-17 07:30N 40°39' W 074°02'1 2.5
2017-Aug-17 07:00N 40°40' W 074°00'0 0.2
2017-Aug-17 06:29N 40°40' W 074°00'0 0.0
2017-Aug-17 05:59N 40°40' W 074°00'0 0.0
2017-Aug-17 05:29N 40°40' W 074°00'0 0.0
2017-Aug-17 04:59N 40°40' W 074°00'0 0.0
2017-Aug-17 04:29N 40°40' W 074°00'0 0.0
2017-Aug-17 03:59N 40°40' W 074°00'0 0.0
2017-Aug-17 03:29N 40°40' W 074°00'0 0.0
2017-Aug-17 02:59N 40°40' W 074°00'0 0.0
2017-Aug-17 02:29N 40°40' W 074°00'0 0.0
2017-Aug-17 01:59N 40°40' W 074°00'0 0.0
2017-Aug-17 01:29N 40°40' W 074°00'0 0.0
2017-Aug-17 00:59N 40°40' W 074°00'0 0.0
2017-Aug-17 00:29N 40°40' W 074°00'0 0.0
2017-Aug-16 23:59N 40°40' W 074°00'0 0.0
2017-Aug-16 23:29N 40°40' W 074°00'0 0.0
2017-Aug-16 22:59N 40°40' W 074°00'0 0.0
2017-Aug-16 22:29N 40°40' W 074°00'0 0.0
2017-Aug-16 21:59N 40°40' W 074°00'0 0.0
2017-Aug-16 21:29N 40°40' W 074°00'0 0.0
2017-Aug-16 20:59N 40°40' W 074°00'0 0.0
2017-Aug-16 20:29N 40°40' W 074°00'0 0.0
2017-Aug-16 19:59N 40°40' W 074°00'0 0.0
2017-Aug-16 19:29N 40°40' W 074°00'0 0.0
2017-Aug-16 18:59N 40°40' W 074°00'0 0.0
2017-Aug-16 18:29N 40°40' W 074°00'0 0.0
2017-Aug-16 17:59N 40°40' W 074°00'0 0.0
2017-Aug-16 17:29N 40°40' W 074°00'1 2.0
2017-Aug-16 17:00N 40°40' W 074°01'3 5.6
2017-Aug-16 16:29N 40°39' W 074°05'1 1.2
2017-Aug-16 16:00N 40°39' W 074°06'1 0.5
2017-Aug-16 13:25N 40°39' W 074°07'1 2.8
2017-Aug-16 12:59N 40°39' W 074°06'1 2.1
2017-Aug-16 12:27N 40°39' W 074°07'0 0.0
2017-Aug-16 12:00N 40°39' W 074°07'0 0.0
2017-Aug-16 11:27N 40°39' W 074°07'0 0.0
2017-Aug-16 11:00N 40°39' W 074°07'0 0.0
2017-Aug-16 10:30N 40°39' W 074°07'0 0.0
2017-Aug-16 09:51N 40°39' W 074°07'0 0.0
2017-Aug-16 09:21N 40°39' W 074°07'0 0.0
2017-Aug-16 08:57N 40°39' W 074°07'0 0.0
2017-Aug-16 08:03N 40°39' W 074°07'0 0.1
2017-Aug-16 08:00N 40°39' W 074°07'0 0.0
2017-Aug-16 07:27N 40°38' W 074°07'0 0.0
2017-Aug-16 06:45N 40°39' W 074°07'0 0.0
2017-Aug-16 06:27N 40°39' W 074°07'0 0.0
2017-Aug-16 05:21N 40°39' W 074°07'0 0.0
2017-Aug-16 04:48N 40°39' W 074°07'1 2.4
2017-Aug-16 04:30N 40°39' W 074°08'3 2.7
2017-Aug-16 03:21N 40°38' W 074°12'0 0.4
2017-Aug-16 03:00N 40°38' W 074°12'4 7.9
2017-Aug-16 02:30N 40°39' W 074°07'4 8.7
2017-Aug-16 02:00N 40°40' W 074°01'1 1.9
2017-Aug-16 01:29N 40°40' W 074°00'0 0.0
2017-Aug-16 00:59N 40°40' W 074°00'0 0.0
2017-Aug-16 00:29N 40°40' W 074°00'0 0.0
2017-Aug-15 23:59N 40°40' W 074°00'0 0.0
2017-Aug-15 23:29N 40°40' W 074°00'0 0.0
2017-Aug-15 22:59N 40°40' W 074°00'0 0.0
2017-Aug-15 22:29N 40°40' W 074°00'0 0.0
2017-Aug-15 21:59N 40°40' W 074°00'0 0.0
2017-Aug-15 21:29N 40°40' W 074°00'0 0.0
2017-Aug-15 20:59N 40°40' W 074°00'0 0.0
2017-Aug-15 20:29N 40°40' W 074°00'0 0.0
2017-Aug-15 19:59N 40°40' W 074°00'0 0.0
2017-Aug-15 19:29N 40°40' W 074°00'0 0.2
2017-Aug-15 18:58N 40°40' W 074°00'0 0.2
2017-Aug-15 18:28N 40°40' W 074°00'0 0.4
2017-Aug-15 18:00N 40°40' W 074°00'1 1.6
2017-Aug-15 17:30N 40°40' W 074°01'4 8.0
2017-Aug-15 17:00N 40°39' W 074°07'1 0.1
2017-Aug-15 12:37N 40°38' W 074°07'0 0.0
2017-Aug-15 10:31N 40°38' W 074°07'0 0.0
2017-Aug-15 10:19N 40°38' W 074°07'0 0.0
2017-Aug-15 09:25N 40°38' W 074°07'0 0.0
2017-Aug-15 08:49N 40°38' W 074°07'0 0.0
2017-Aug-15 08:19N 40°38' W 074°07'0 0.0
2017-Aug-15 06:55N 40°38' W 074°07'0 0.0
2017-Aug-15 06:19N 40°38' W 074°07'0 0.0
2017-Aug-15 05:37N 40°38' W 074°07'0 0.0
2017-Aug-15 04:31N 40°38' W 074°07'0 0.0
2017-Aug-15 04:19N 40°38' W 074°07'0 0.0
2017-Aug-15 03:58N 40°38' W 074°07'0 0.0
2017-Aug-15 03:19N 40°38' W 074°07'0 0.0
2017-Aug-15 02:46N 40°38' W 074°07'0 0.0
2017-Aug-15 02:25N 40°38' W 074°07'0 0.0
2017-Aug-15 01:43N 40°38' W 074°07'0 0.0
2017-Aug-15 01:28N 40°38' W 074°07'0 0.3
2017-Aug-15 00:57N 40°39' W 074°07'1 1.9
2017-Aug-15 00:25N 40°39' W 074°06'0 0.8
2017-Aug-15 00:00N 40°39' W 074°05'1 1.5
2017-Aug-14 22:58N 40°38' W 074°07'0 0.0
2017-Aug-14 20:16N 40°38' W 074°07'0 0.0
2017-Aug-14 19:43N 40°38' W 074°07'0 0.1
2017-Aug-14 19:04N 40°39' W 074°07'0 7.1
2017-Aug-14 19:00N 40°39' W 074°07'4 7.4
2017-Aug-14 18:30N 40°41' W 074°03'4 7.2
2017-Aug-14 18:00N 40°44' W 074°01'3 6.7
2017-Aug-14 17:30N 40°47' W 073°60'3 6.8
2017-Aug-14 17:00N 40°50' W 073°58'4 7.6
2017-Aug-14 16:30N 40°54' W 073°55'2 4.0
2017-Aug-14 15:59N 40°56' W 073°54'0 0.7
2017-Aug-14 15:30N 40°56' W 073°55'0 0.9
2017-Aug-14 14:58N 40°55' W 073°55'3 6.0
2017-Aug-14 14:30N 40°53' W 073°56'3 6.4
2017-Aug-14 14:00N 40°50' W 073°58'3 5.8
2017-Aug-14 13:30N 40°47' W 073°60'3 5.5
2017-Aug-14 13:00N 40°45' W 074°01'3 5.4
2017-Aug-14 12:30N 40°42' W 074°02'2 4.8
2017-Aug-14 12:00N 40°40' W 074°00'0 0.6
2017-Aug-14 11:29N 40°40' W 074°00'0 0.0
2017-Aug-14 10:59N 40°40' W 074°00'0 0.0
2017-Aug-14 10:29N 40°40' W 074°00'0 0.0
2017-Aug-14 09:59N 40°40' W 074°00'0 0.0
2017-Aug-14 09:29N 40°40' W 074°00'0 0.0
2017-Aug-14 08:59N 40°40' W 074°00'0 0.0
2017-Aug-14 08:29N 40°40' W 074°00'0 0.0
2017-Aug-14 07:59N 40°40' W 074°00'0 0.0
2017-Aug-14 07:29N 40°40' W 074°00'0 0.0
2017-Aug-14 06:59N 40°40' W 074°00'0 0.0
2017-Aug-14 06:29N 40°40' W 074°00'0 0.0
2017-Aug-14 05:59N 40°40' W 074°00'0 0.0
2017-Aug-14 05:29N 40°40' W 074°00'0 0.0
2017-Aug-14 04:59N 40°40' W 074°00'0 0.0
2017-Aug-14 04:29N 40°40' W 074°00'0 0.0
2017-Aug-14 03:59N 40°40' W 074°00'0 0.0
2017-Aug-14 03:29N 40°40' W 074°00'0 0.0
2017-Aug-14 02:56N 40°40' W 074°00'0 0.0
2017-Aug-14 02:29N 40°40' W 074°00'0 0.0
2017-Aug-14 01:59N 40°40' W 074°00'0 0.0
2017-Aug-14 01:29N 40°40' W 074°00'0 0.0
2017-Aug-14 00:59N 40°40' W 074°00'0 0.0
2017-Aug-14 00:29N 40°40' W 074°00'0 0.0
2017-Aug-13 23:59N 40°40' W 074°00'0 0.0
2017-Aug-13 23:29N 40°40' W 074°00'0 0.0
2017-Aug-13 22:59N 40°40' W 074°00'0 0.0
2017-Aug-13 22:29N 40°40' W 074°00'0 0.0
2017-Aug-13 21:59N 40°40' W 074°00'0 0.6
2017-Aug-13 21:28N 40°40' W 074°00'0 0.8
2017-Aug-13 21:00N 40°40' W 074°01'0 0.7
2017-Aug-13 20:29N 40°40' W 074°00'0 0.0
2017-Aug-13 19:59N 40°40' W 074°00'0 0.0
2017-Aug-13 19:29N 40°40' W 074°00'0 0.0
2017-Aug-13 18:59N 40°40' W 074°00'0 0.0
2017-Aug-13 18:29N 40°40' W 074°00'0 0.0
2017-Aug-13 17:59N 40°40' W 074°00'0 0.0
2017-Aug-13 17:29N 40°40' W 074°00'0 0.0
2017-Aug-13 16:59N 40°40' W 074°00'0 0.0
2017-Aug-13 16:29N 40°40' W 074°00'0 0.0
2017-Aug-13 15:59N 40°40' W 074°00'0 0.0
2017-Aug-13 15:29N 40°40' W 074°00'0 0.0
2017-Aug-13 14:59N 40°40' W 074°00'0 0.7
2017-Aug-13 14:30N 40°40' W 074°00'0 0.0
2017-Aug-13 14:00N 40°40' W 074°00'0 0.0
2017-Aug-13 13:30N 40°40' W 074°00'0 0.0
2017-Aug-13 13:00N 40°40' W 074°00'0 0.0
2017-Aug-13 12:30N 40°40' W 074°00'0 0.0
2017-Aug-13 12:00N 40°40' W 074°00'0 0.0
2017-Aug-13 11:30N 40°40' W 074°00'0 0.0
2017-Aug-13 11:00N 40°40' W 074°00'0 0.0
2017-Aug-13 10:30N 40°40' W 074°00'0 0.0
2017-Aug-13 10:00N 40°40' W 074°00'0 0.0
2017-Aug-13 09:30N 40°40' W 074°00'0 0.0
2017-Aug-13 09:00N 40°40' W 074°00'0 0.0
2017-Aug-13 08:30N 40°40' W 074°00'0 0.0
2017-Aug-13 08:00N 40°40' W 074°00'0 0.0
2017-Aug-13 07:30N 40°40' W 074°00'0 0.0
2017-Aug-13 07:00N 40°40' W 074°00'0 0.0
2017-Aug-13 06:30N 40°40' W 074°00'0 0.0
2017-Aug-13 06:00N 40°40' W 074°00'0 0.0
2017-Aug-13 05:30N 40°40' W 074°00'0 0.0
2017-Aug-13 05:00N 40°40' W 074°00'0 0.0
2017-Aug-13 04:30N 40°40' W 074°00'0 0.0
2017-Aug-13 04:00N 40°40' W 074°00'0 0.0
2017-Aug-13 03:27N 40°40' W 074°00'0 0.0
2017-Aug-13 03:00N 40°40' W 074°00'0 0.0
2017-Aug-13 02:30N 40°40' W 074°00'0 0.0
2017-Aug-13 02:00N 40°40' W 074°00'0 0.0
2017-Aug-13 01:30N 40°40' W 074°00'0 0.0
2017-Aug-13 01:00N 40°40' W 074°00'0 0.0
2017-Aug-13 00:30N 40°40' W 074°00'0 0.0
2017-Aug-13 00:00N 40°40' W 074°00'0 0.0
2017-Aug-12 23:30N 40°40' W 074°00'0 0.0
2017-Aug-12 23:00N 40°40' W 074°00'0 0.0
2017-Aug-12 22:30N 40°40' W 074°00'0 0.0
2017-Aug-12 22:00N 40°40' W 074°00'0 0.0
2017-Aug-12 21:30N 40°40' W 074°00'0 0.0
2017-Aug-12 21:00N 40°40' W 074°00'0 0.0
2017-Aug-12 20:30N 40°40' W 074°00'0 0.0
2017-Aug-12 20:00N 40°40' W 074°00'0 0.0
2017-Aug-12 19:30N 40°40' W 074°00'0 0.0
2017-Aug-12 19:00N 40°40' W 074°00'0 0.0
2017-Aug-12 18:30N 40°40' W 074°00'0 0.0
2017-Aug-12 18:00N 40°40' W 074°00'0 0.0
2017-Aug-12 17:30N 40°40' W 074°00'0 0.0
2017-Aug-12 17:00N 40°40' W 074°00'0 0.0
2017-Aug-12 16:30N 40°40' W 074°00'0 0.0
2017-Aug-12 16:00N 40°40' W 074°00'0 0.0
2017-Aug-12 15:30N 40°40' W 074°00'0 0.0
2017-Aug-12 15:00N 40°40' W 074°00'0 0.0
2017-Aug-12 14:30N 40°40' W 074°00'0 0.0
2017-Aug-12 14:00N 40°40' W 074°00'0 0.0
2017-Aug-12 13:30N 40°40' W 074°00'0 0.0
2017-Aug-12 13:00N 40°40' W 074°00'0 0.0
2017-Aug-12 12:30N 40°40' W 074°00'0 0.0
2017-Aug-12 12:00N 40°40' W 074°00'0 0.0
2017-Aug-12 11:30N 40°40' W 074°00'0 0.0
2017-Aug-12 11:00N 40°40' W 074°00'0 0.0
2017-Aug-12 10:30N 40°40' W 074°00'0 0.0
2017-Aug-12 10:00N 40°40' W 074°00'0 0.0
2017-Aug-12 09:30N 40°40' W 074°00'0 0.0
2017-Aug-12 09:00N 40°40' W 074°00'0 0.0
2017-Aug-12 08:30N 40°40' W 074°00'0 0.0
2017-Aug-12 08:00N 40°40' W 074°00'0 0.0
2017-Aug-12 07:30N 40°40' W 074°00'0 0.0
2017-Aug-12 07:00N 40°40' W 074°00'0 0.0
2017-Aug-12 06:27N 40°40' W 074°00'0 0.0
2017-Aug-12 06:00N 40°40' W 074°00'0 0.0
2017-Aug-12 05:30N 40°40' W 074°00'0 0.0
2017-Aug-12 05:00N 40°40' W 074°00'0 0.0
2017-Aug-12 04:30N 40°40' W 074°00'0 0.0
2017-Aug-12 04:00N 40°40' W 074°00'0 0.0
2017-Aug-12 03:30N 40°40' W 074°00'0 0.0
2017-Aug-12 03:00N 40°40' W 074°00'0 0.0
2017-Aug-12 02:30N 40°40' W 074°00'0 0.0
2017-Aug-12 02:00N 40°40' W 074°00'0 0.0
2017-Aug-12 01:30N 40°40' W 074°00'0 0.0
2017-Aug-12 01:00N 40°40' W 074°00'0 0.0
2017-Aug-12 00:30N 40°40' W 074°00'0 0.0
2017-Aug-12 00:00N 40°40' W 074°00'0 0.0
2017-Aug-11 23:30N 40°40' W 074°00'0 0.0
2017-Aug-11 23:00N 40°40' W 074°00'0 0.0
2017-Aug-11 22:30N 40°40' W 074°00'0 0.0
2017-Aug-11 22:00N 40°40' W 074°00'0 0.0
2017-Aug-11 21:30N 40°40' W 074°00'0 0.0
2017-Aug-11 21:00N 40°40' W 074°00'0 0.0
2017-Aug-11 20:30N 40°40' W 074°00'0 0.0
2017-Aug-11 20:00N 40°40' W 074°00'0 0.0
2017-Aug-11 19:30N 40°40' W 074°00'0 0.0
2017-Aug-11 19:00N 40°40' W 074°00'0 0.0
2017-Aug-11 18:30N 40°40' W 074°00'0 0.0
2017-Aug-11 18:00N 40°40' W 074°00'0 0.0
2017-Aug-11 17:30N 40°40' W 074°00'0 0.0
2017-Aug-11 17:00N 40°40' W 074°00'0 0.0
2017-Aug-11 16:30N 40°40' W 074°00'0 0.0
2017-Aug-11 16:00N 40°40' W 074°00'0 0.0
2017-Aug-11 15:30N 40°40' W 074°00'0 0.0
2017-Aug-11 15:00N 40°40' W 074°00'0 0.0
2017-Aug-11 14:00N 40°40' W 074°00'0 0.0
2017-Aug-11 13:30N 40°40' W 074°00'0 0.0
2017-Aug-11 13:00N 40°40' W 074°00'0 0.2
2017-Aug-11 12:29N 40°40' W 074°00'0 0.0
2017-Aug-11 12:01N 40°40' W 074°00'0 0.2
2017-Aug-11 11:30N 40°40' W 074°00'0 0.0
2017-Aug-11 11:00N 40°40' W 074°00'0 0.0
2017-Aug-11 10:30N 40°40' W 074°00'0 0.0
2017-Aug-11 10:00N 40°40' W 074°00'0 0.0
2017-Aug-11 09:30N 40°40' W 074°00'0 0.0
2017-Aug-11 09:00N 40°40' W 074°00'0 0.0
2017-Aug-11 08:30N 40°40' W 074°00'0 0.0
2017-Aug-11 08:00N 40°40' W 074°00'  
Track history (hours):
 
Tides and Currents Weather Stations Pressure Air Temp Water Temp Dewpoint Dewpoint Depression Visibility Wind Speed Wind Dir Waves Ship Positions

Emerald Coast

Owner: Dann Marine Towing, LC, Chesapeake City, MD. More information available from US FCC via Universal Licensing System and Coast Guard Vessel Documentation Center.

Last reported at 2017-Aug-21 07:59 UTC. Time now 2017-Aug-21 08:26 UTC.
Position N 40°40' W 074°00'.

Length 24 m; draft 3 m.

Type: Tug. MMSI: 367097920.

Date/timePositionNaut miles runAvg speedWind from/ knotsBaromVisibWave heightAir tempDewpointWater temp
2017-Aug-21 07:59N 40°40' W 074°00'0 0.0
2017-Aug-21 07:29N 40°40' W 074°00'0 0.0
2017-Aug-21 06:59N 40°40' W 074°00'0 0.0
2017-Aug-21 06:29N 40°40' W 074°00'0 0.0
2017-Aug-21 05:59N 40°40' W 074°00'0 0.0
2017-Aug-21 05:29N 40°40' W 074°00'0 0.0
2017-Aug-21 04:59N 40°40' W 074°00'0 0.0
2017-Aug-21 04:29N 40°40' W 074°00'0 0.0
2017-Aug-21 03:59N 40°40' W 074°00'0 0.0
2017-Aug-21 03:29N 40°40' W 074°00'0 0.0
2017-Aug-21 02:59N 40°40' W 074°00'0 0.0
2017-Aug-21 02:29N 40°40' W 074°00'0 0.0
2017-Aug-21 01:59N 40°40' W 074°00'0 0.0
2017-Aug-21 01:29N 40°40' W 074°00'0 0.0
2017-Aug-21 00:59N 40°40' W 074°00'0 0.0
2017-Aug-21 00:29N 40°40' W 074°00'0 0.0
2017-Aug-20 23:59N 40°40' W 074°00'0 0.0
2017-Aug-20 23:29N 40°40' W 074°00'0 0.0
2017-Aug-20 22:59N 40°40' W 074°00'0 0.0
2017-Aug-20 22:29N 40°40' W 074°00'0 0.0
2017-Aug-20 21:59N 40°40' W 074°00'0 0.0
2017-Aug-20 21:26N 40°40' W 074°00'0 0.0
2017-Aug-20 20:56N 40°40' W 074°00'0 0.0
2017-Aug-20 20:23N 40°40' W 074°00'0 0.0
2017-Aug-20 19:41N 40°40' W 074°00'0 0.0
2017-Aug-20 19:29N 40°40' W 074°00'0 0.0
2017-Aug-20 18:56N 40°40' W 074°00'0 0.0
2017-Aug-20 18:29N 40°40' W 074°00'0 0.0
2017-Aug-20 17:44N 40°40' W 074°00'0 0.0
2017-Aug-20 17:26N 40°40' W 074°00'0 0.0
2017-Aug-20 16:56N 40°40' W 074°00'0 0.2
2017-Aug-20 16:28N 40°40' W 074°00'0 0.0
2017-Aug-20 16:01N 40°40' W 074°00'0 0.0
2017-Aug-20 15:25N 40°40' W 074°00'0 0.2
2017-Aug-20 15:00N 40°40' W 074°00'3 5.3
2017-Aug-20 14:31N 40°39' W 074°03'4 8.3
2017-Aug-20 14:00N 40°38' W 074°09'3 6.6
2017-Aug-20 13:31N 40°42' W 074°08'0 0.3
2017-Aug-20 12:41N 40°42' W 074°09'0 0.0
2017-Aug-20 12:29N 40°42' W 074°09'0 0.0
2017-Aug-20 10:59N 40°42' W 074°09'0 0.1
2017-Aug-20 10:28N 40°42' W 074°09'2 3.4
2017-Aug-20 10:00N 40°40' W 074°08'2 3.5
2017-Aug-20 09:30N 40°39' W 074°07'3 6.9
2017-Aug-20 09:00N 40°40' W 074°03'2 3.0
2017-Aug-20 08:30N 40°40' W 074°01'1 1.7
2017-Aug-20 08:00N 40°40' W 074°00'0 0.0
2017-Aug-20 07:30N 40°40' W 074°00'0 0.0
2017-Aug-20 06:57N 40°40' W 074°00'0 0.0
2017-Aug-20 06:26N 40°40' W 074°00'0 0.0
2017-Aug-20 05:59N 40°40' W 074°00'0 0.0
2017-Aug-20 05:26N 40°40' W 074°00'0 0.0
2017-Aug-20 04:59N 40°40' W 074°00'0 0.0
2017-Aug-20 04:27N 40°40' W 074°00'0 0.0
2017-Aug-20 03:59N 40°40' W 074°00'0 0.0
2017-Aug-20 03:27N 40°40' W 074°00'0 0.0
2017-Aug-20 02:59N 40°40' W 074°00'0 0.0
2017-Aug-20 02:30N 40°40' W 074°00'0 0.0
2017-Aug-20 01:59N 40°40' W 074°00'0 0.0
2017-Aug-20 01:29N 40°40' W 074°00'0 0.0
2017-Aug-20 00:59N 40°40' W 074°00'0 0.0
2017-Aug-20 00:29N 40°40' W 074°00'0 0.0
2017-Aug-19 23:59N 40°40' W 074°00'0 0.0
2017-Aug-19 23:29N 40°40' W 074°00'0 0.0
2017-Aug-19 22:56N 40°40' W 074°00'0 0.0
2017-Aug-19 22:29N 40°40' W 074°00'0 0.0
2017-Aug-19 21:56N 40°40' W 074°00'0 0.0
2017-Aug-19 21:29N 40°40' W 074°00'0 0.0
2017-Aug-19 20:59N 40°40' W 074°00'0 0.0
2017-Aug-19 20:29N 40°40' W 074°00'0 0.0
2017-Aug-19 19:59N 40°40' W 074°00'0 0.0
2017-Aug-19 19:26N 40°40' W 074°00'0 0.0
2017-Aug-19 18:56N 40°40' W 074°00'0 0.0
2017-Aug-19 18:29N 40°40' W 074°00'0 0.0
2017-Aug-19 17:56N 40°40' W 074°00'0 0.0
2017-Aug-19 17:26N 40°40' W 074°00'0 0.0
2017-Aug-19 16:56N 40°40' W 074°00'0 0.0
2017-Aug-19 16:29N 40°40' W 074°00'2 4.4
2017-Aug-19 15:59N 40°40' W 074°03'1 2.1
2017-Aug-19 15:30N 40°40' W 074°04'1 2.2
2017-Aug-19 15:01N 40°39' W 074°05'3 2.8
2017-Aug-19 14:01N 40°39' W 074°02'1 2.8
2017-Aug-19 13:29N 40°40' W 074°00'0 0.0
2017-Aug-19 12:59N 40°40' W 074°00'0 0.0
2017-Aug-19 12:29N 40°40' W 074°00'0 0.0
2017-Aug-19 11:59N 40°40' W 074°00'0 0.0
2017-Aug-19 11:29N 40°40' W 074°00'0 0.0
2017-Aug-19 10:59N 40°40' W 074°00'0 0.0
2017-Aug-19 10:29N 40°40' W 074°00'0 0.0
2017-Aug-19 09:59N 40°40' W 074°00'0 0.0
2017-Aug-19 09:29N 40°40' W 074°00'0 0.0
2017-Aug-19 08:59N 40°40' W 074°00'0 0.0
2017-Aug-19 08:29N 40°40' W 074°00'0 0.0
2017-Aug-19 08:00N 40°40' W 074°00'1 1.9
2017-Aug-19 07:30N 40°40' W 074°01'2 2.9
2017-Aug-19 06:59N 40°39' W 074°03'1 2.4
2017-Aug-19 06:30N 40°38' W 074°04'0 0.1
2017-Aug-19 06:00N 40°38' W 074°04'0 0.0
2017-Aug-19 05:30N 40°38' W 074°04'0 0.0
2017-Aug-19 05:00N 40°38' W 074°04'0 0.1
2017-Aug-19 04:30N 40°38' W 074°04'0 0.1
2017-Aug-19 04:00N 40°38' W 074°04'0 0.0
2017-Aug-19 03:30N 40°38' W 074°04'0 0.0
2017-Aug-19 03:00N 40°38' W 074°04'0 0.0
2017-Aug-19 02:30N 40°38' W 074°04'0 0.0
2017-Aug-19 02:00N 40°38' W 074°04'0 0.0
2017-Aug-19 01:30N 40°38' W 074°04'3 6.7
2017-Aug-19 01:01N 40°41' W 074°02'4 7.7
2017-Aug-19 00:30N 40°45' W 074°01'3 6.5
2017-Aug-19 00:00N 40°48' W 073°59'3 5.9
2017-Aug-18 23:30N 40°50' W 073°57'3 5.2
2017-Aug-18 23:00N 40°53' W 073°56'3 4.5
2017-Aug-18 22:18N 40°56' W 073°54'0 0.2
2017-Aug-18 21:57N 40°56' W 073°54'510.9
2017-Aug-18 21:30N 40°51' W 073°57'611.1
2017-Aug-18 21:00N 40°46' W 074°00'510.3
2017-Aug-18 20:30N 40°41' W 074°02'4 8.3
2017-Aug-18 20:00N 40°39' W 074°07'4 7.8
2017-Aug-18 19:30N 40°38' W 074°12'2 1.4
2017-Aug-18 18:08N 40°37' W 074°12'1 7.1
2017-Aug-18 17:59N 40°38' W 074°12'0 0.2
2017-Aug-18 17:16N 40°38' W 074°12'0 0.5
2017-Aug-18 16:58N 40°38' W 074°12'3 7.6
2017-Aug-18 16:30N 40°39' W 074°08'4 8.1
2017-Aug-18 16:00N 40°40' W 074°03'2 3.1
2017-Aug-18 15:30N 40°40' W 074°05'0 0.1
2017-Aug-18 14:59N 40°40' W 074°05'0 0.0
2017-Aug-18 14:29N 40°40' W 074°05'0 0.0
2017-Aug-18 13:29N 40°40' W 074°05'2 3.7
2017-Aug-18 13:00N 40°39' W 074°03'3 2.8
2017-Aug-18 11:59N 40°38' W 074°07'0 0.0
2017-Aug-18 11:20N 40°38' W 074°07'0 0.0
2017-Aug-18 10:53N 40°38' W 074°07'0 0.1
2017-Aug-18 10:21N 40°39' W 074°07'3 7.8
2017-Aug-18 10:00N 40°39' W 074°04'3 5.9
2017-Aug-18 09:29N 40°40' W 074°00'0 0.0
2017-Aug-18 08:59N 40°40' W 074°00'0 0.0
2017-Aug-18 08:29N 40°40' W 074°00'0 0.0
2017-Aug-18 07:59N 40°40' W 074°00'0 0.0
2017-Aug-18 07:29N 40°40' W 074°00'0 0.0
2017-Aug-18 06:59N 40°40' W 074°00'0 0.0
2017-Aug-18 06:29N 40°40' W 074°00'0 0.0
2017-Aug-18 05:59N 40°40' W 074°00'0 0.0
2017-Aug-18 05:29N 40°40' W 074°00'0 0.0
2017-Aug-18 04:59N 40°40' W 074°00'0 0.0
2017-Aug-18 04:29N 40°40' W 074°00'0 0.0
2017-Aug-18 03:59N 40°40' W 074°00'0 0.0
2017-Aug-18 03:29N 40°40' W 074°00'0 0.0
2017-Aug-18 02:59N 40°40' W 074°00'0 0.6
2017-Aug-18 02:29N 40°40' W 074°00'0 0.3
2017-Aug-18 02:00N 40°40' W 074°00'1 1.9
2017-Aug-18 01:30N 40°39' W 074°01'3 6.4
2017-Aug-18 01:00N 40°39' W 074°06'0 0.3
2017-Aug-18 00:30N 40°39' W 074°06'0 0.7
2017-Aug-18 00:00N 40°39' W 074°05'4 7.7
2017-Aug-17 23:31N 40°40' W 074°00'0 0.8
2017-Aug-17 22:58N 40°40' W 074°00'0 0.0
2017-Aug-17 22:28N 40°40' W 074°00'0 0.0
2017-Aug-17 21:58N 40°40' W 074°00'0 0.0
2017-Aug-17 21:28N 40°40' W 074°00'0 0.0
2017-Aug-17 20:58N 40°40' W 074°00'0 0.0
2017-Aug-17 20:28N 40°40' W 074°00'0 0.0
2017-Aug-17 19:58N 40°40' W 074°00'1 3.0
2017-Aug-17 19:30N 40°40' W 074°02'1 1.6
2017-Aug-17 18:58N 40°41' W 074°03'0 0.2
2017-Aug-17 18:28N 40°41' W 074°03'2 4.3
2017-Aug-17 18:01N 40°39' W 074°05'2 3.8
2017-Aug-17 17:30N 40°39' W 074°07'2 3.1
2017-Aug-17 17:01N 40°39' W 074°09'2 2.2
2017-Aug-17 15:56N 40°42' W 074°09'3 7.2
2017-Aug-17 15:30N 40°39' W 074°09'1 0.7
2017-Aug-17 13:43N 40°38' W 074°07'0 0.0
2017-Aug-17 12:25N 40°38' W 074°07'3 6.0
2017-Aug-17 12:00N 40°39' W 074°11'2 2.5
2017-Aug-17 11:23N 40°38' W 074°12'0 0.1
2017-Aug-17 10:59N 40°38' W 074°12'2 3.6
2017-Aug-17 10:31N 40°36' W 074°12'0 0.3
2017-Aug-17 09:58N 40°36' W 074°12'3 5.9
2017-Aug-17 09:30N 40°39' W 074°11'4 7.1
2017-Aug-17 09:00N 40°39' W 074°06'0 0.1
2017-Aug-17 08:30N 40°39' W 074°06'2 3.1
2017-Aug-17 08:01N 40°39' W 074°04'2 3.4
2017-Aug-17 07:30N 40°39' W 074°02'1 2.5
2017-Aug-17 07:00N 40°40' W 074°00'0 0.2
2017-Aug-17 06:29N 40°40' W 074°00'0 0.0
2017-Aug-17 05:59N 40°40' W 074°00'0 0.0
2017-Aug-17 05:29N 40°40' W 074°00'0 0.0
2017-Aug-17 04:59N 40°40' W 074°00'0 0.0
2017-Aug-17 04:29N 40°40' W 074°00'0 0.0
2017-Aug-17 03:59N 40°40' W 074°00'0 0.0
2017-Aug-17 03:29N 40°40' W 074°00'0 0.0
2017-Aug-17 02:59N 40°40' W 074°00'0 0.0
2017-Aug-17 02:29N 40°40' W 074°00'0 0.0
2017-Aug-17 01:59N 40°40' W 074°00'0 0.0
2017-Aug-17 01:29N 40°40' W 074°00'0 0.0
2017-Aug-17 00:59N 40°40' W 074°00'0 0.0
2017-Aug-17 00:29N 40°40' W 074°00'0 0.0
2017-Aug-16 23:59N 40°40' W 074°00'0 0.0
2017-Aug-16 23:29N 40°40' W 074°00'0 0.0
2017-Aug-16 22:59N 40°40' W 074°00'0 0.0
2017-Aug-16 22:29N 40°40' W 074°00'0 0.0
2017-Aug-16 21:59N 40°40' W 074°00'0 0.0
2017-Aug-16 21:29N 40°40' W 074°00'0 0.0
2017-Aug-16 20:59N 40°40' W 074°00'0 0.0
2017-Aug-16 20:29N 40°40' W 074°00'0 0.0
2017-Aug-16 19:59N 40°40' W 074°00'0 0.0
2017-Aug-16 19:29N 40°40' W 074°00'0 0.0
2017-Aug-16 18:59N 40°40' W 074°00'0 0.0
2017-Aug-16 18:29N 40°40' W 074°00'0 0.0
2017-Aug-16 17:59N 40°40' W 074°00'0 0.0
2017-Aug-16 17:29N 40°40' W 074°00'1 2.0
2017-Aug-16 17:00N 40°40' W 074°01'3 5.6
2017-Aug-16 16:29N 40°39' W 074°05'1 1.2
2017-Aug-16 16:00N 40°39' W 074°06'1 0.5
2017-Aug-16 13:25N 40°39' W 074°07'1 2.8
2017-Aug-16 12:59N 40°39' W 074°06'1 2.1
2017-Aug-16 12:27N 40°39' W 074°07'0 0.0
2017-Aug-16 12:00N 40°39' W 074°07'0 0.0
2017-Aug-16 11:27N 40°39' W 074°07'0 0.0
2017-Aug-16 11:00N 40°39' W 074°07'0 0.0
2017-Aug-16 10:30N 40°39' W 074°07'0 0.0
2017-Aug-16 09:51N 40°39' W 074°07'0 0.0
2017-Aug-16 09:21N 40°39' W 074°07'0 0.0
2017-Aug-16 08:57N 40°39' W 074°07'0 0.0
2017-Aug-16 08:03N 40°39' W 074°07'0 0.1
2017-Aug-16 08:00N 40°39' W 074°07'0 0.0
2017-Aug-16 07:27N 40°38' W 074°07'0 0.0
2017-Aug-16 06:45N 40°39' W 074°07'0 0.0
2017-Aug-16 06:27N 40°39' W 074°07'0 0.0
2017-Aug-16 05:21N 40°39' W 074°07'0 0.0
2017-Aug-16 04:48N 40°39' W 074°07'1 2.4
2017-Aug-16 04:30N 40°39' W 074°08'3 2.7
2017-Aug-16 03:21N 40°38' W 074°12'0 0.4
2017-Aug-16 03:00N 40°38' W 074°12'4 7.9
2017-Aug-16 02:30N 40°39' W 074°07'4 8.7
2017-Aug-16 02:00N 40°40' W 074°01'1 1.9
2017-Aug-16 01:29N 40°40' W 074°00'0 0.0
2017-Aug-16 00:59N 40°40' W 074°00'0 0.0
2017-Aug-16 00:29N 40°40' W 074°00'0 0.0
2017-Aug-15 23:59N 40°40' W 074°00'0 0.0
2017-Aug-15 23:29N 40°40' W 074°00'0 0.0
2017-Aug-15 22:59N 40°40' W 074°00'0 0.0
2017-Aug-15 22:29N 40°40' W 074°00'0 0.0
2017-Aug-15 21:59N 40°40' W 074°00'0 0.0
2017-Aug-15 21:29N 40°40' W 074°00'0 0.0
2017-Aug-15 20:59N 40°40' W 074°00'0 0.0
2017-Aug-15 20:29N 40°40' W 074°00'0 0.0
2017-Aug-15 19:59N 40°40' W 074°00'0 0.0
2017-Aug-15 19:29N 40°40' W 074°00'0 0.2
2017-Aug-15 18:58N 40°40' W 074°00'0 0.2
2017-Aug-15 18:28N 40°40' W 074°00'0 0.4
2017-Aug-15 18:00N 40°40' W 074°00'1 1.6
2017-Aug-15 17:30N 40°40' W 074°01'4 8.0
2017-Aug-15 17:00N 40°39' W 074°07'1 0.1
2017-Aug-15 12:37N 40°38' W 074°07'0 0.0
2017-Aug-15 10:31N 40°38' W 074°07'0 0.0
2017-Aug-15 10:19N 40°38' W 074°07'0 0.0
2017-Aug-15 09:25N 40°38' W 074°07'0 0.0
2017-Aug-15 08:49N 40°38' W 074°07'0 0.0
2017-Aug-15 08:19N 40°38' W 074°07'0 0.0
2017-Aug-15 06:55N 40°38' W 074°07'0 0.0
2017-Aug-15 06:19N 40°38' W 074°07'0 0.0
2017-Aug-15 05:37N 40°38' W 074°07'0 0.0
2017-Aug-15 04:31N 40°38' W 074°07'0 0.0
2017-Aug-15 04:19N 40°38' W 074°07'0 0.0
2017-Aug-15 03:58N 40°38' W 074°07'0 0.0
2017-Aug-15 03:19N 40°38' W 074°07'0 0.0
2017-Aug-15 02:46N 40°38' W 074°07'0 0.0
2017-Aug-15 02:25N 40°38' W 074°07'0 0.0
2017-Aug-15 01:43N 40°38' W 074°07'0 0.0
2017-Aug-15 01:28N 40°38' W 074°07'0 0.3
2017-Aug-15 00:57N 40°39' W 074°07'1 1.9
2017-Aug-15 00:25N 40°39' W 074°06'0 0.8
2017-Aug-15 00:00N 40°39' W 074°05'1 1.5
2017-Aug-14 22:58N 40°38' W 074°07'0 0.0
2017-Aug-14 20:16N 40°38' W 074°07'0 0.0
2017-Aug-14 19:43N 40°38' W 074°07'0 0.1
2017-Aug-14 19:04N 40°39' W 074°07'0 7.1
2017-Aug-14 19:00N 40°39' W 074°07'4 7.4
2017-Aug-14 18:30N 40°41' W 074°03'4 7.2
2017-Aug-14 18:00N 40°44' W 074°01'3 6.7
2017-Aug-14 17:30N 40°47' W 073°60'3 6.8
2017-Aug-14 17:00N 40°50' W 073°58'4 7.6
2017-Aug-14 16:30N 40°54' W 073°55'2 4.0
2017-Aug-14 15:59N 40°56' W 073°54'0 0.7
2017-Aug-14 15:30N 40°56' W 073°55'0 0.9
2017-Aug-14 14:58N 40°55' W 073°55'3 6.0
2017-Aug-14 14:30N 40°53' W 073°56'3 6.4
2017-Aug-14 14:00N 40°50' W 073°58'3 5.8
2017-Aug-14 13:30N 40°47' W 073°60'3 5.5
2017-Aug-14 13:00N 40°45' W 074°01'3 5.4
2017-Aug-14 12:30N 40°42' W 074°02'2 4.8
2017-Aug-14 12:00N 40°40' W 074°00'0 0.6
2017-Aug-14 11:29N 40°40' W 074°00'0 0.0
2017-Aug-14 10:59N 40°40' W 074°00'0 0.0
2017-Aug-14 10:29N 40°40' W 074°00'0 0.0
2017-Aug-14 09:59N 40°40' W 074°00'0 0.0
2017-Aug-14 09:29N 40°40' W 074°00'0 0.0
2017-Aug-14 08:59N 40°40' W 074°00'0 0.0
2017-Aug-14 08:29N 40°40' W 074°00'0 0.0
2017-Aug-14 07:59N 40°40' W 074°00'0 0.0
2017-Aug-14 07:29N 40°40' W 074°00'0 0.0
2017-Aug-14 06:59N 40°40' W 074°00'0 0.0
2017-Aug-14 06:29N 40°40' W 074°00'0 0.0
2017-Aug-14 05:59N 40°40' W 074°00'0 0.0
2017-Aug-14 05:29N 40°40' W 074°00'0 0.0
2017-Aug-14 04:59N 40°40' W 074°00'0 0.0
2017-Aug-14 04:29N 40°40' W 074°00'0 0.0
2017-Aug-14 03:59N 40°40' W 074°00'0 0.0
2017-Aug-14 03:29N 40°40' W 074°00'0 0.0
2017-Aug-14 02:56N 40°40' W 074°00'0 0.0
2017-Aug-14 02:29N 40°40' W 074°00'0 0.0
2017-Aug-14 01:59N 40°40' W 074°00'0 0.0
2017-Aug-14 01:29N 40°40' W 074°00'0 0.0
2017-Aug-14 00:59N 40°40' W 074°00'0 0.0
2017-Aug-14 00:29N 40°40' W 074°00'0 0.0
2017-Aug-13 23:59N 40°40' W 074°00'0 0.0
2017-Aug-13 23:29N 40°40' W 074°00'0 0.0
2017-Aug-13 22:59N 40°40' W 074°00'0 0.0
2017-Aug-13 22:29N 40°40' W 074°00'0 0.0
2017-Aug-13 21:59N 40°40' W 074°00'0 0.6
2017-Aug-13 21:28N 40°40' W 074°00'0 0.8
2017-Aug-13 21:00N 40°40' W 074°01'0 0.7
2017-Aug-13 20:29N 40°40' W 074°00'0 0.0
2017-Aug-13 19:59N 40°40' W 074°00'0 0.0
2017-Aug-13 19:29N 40°40' W 074°00'0 0.0
2017-Aug-13 18:59N 40°40' W 074°00'0 0.0
2017-Aug-13 18:29N 40°40' W 074°00'0 0.0
2017-Aug-13 17:59N 40°40' W 074°00'0 0.0
2017-Aug-13 17:29N 40°40' W 074°00'0 0.0
2017-Aug-13 16:59N 40°40' W 074°00'0 0.0
2017-Aug-13 16:29N 40°40' W 074°00'0 0.0
2017-Aug-13 15:59N 40°40' W 074°00'0 0.0
2017-Aug-13 15:29N 40°40' W 074°00'0 0.0
2017-Aug-13 14:59N 40°40' W 074°00'0 0.7
2017-Aug-13 14:30N 40°40' W 074°00'0 0.0
2017-Aug-13 14:00N 40°40' W 074°00'0 0.0
2017-Aug-13 13:30N 40°40' W 074°00'0 0.0
2017-Aug-13 13:00N 40°40' W 074°00'0 0.0
2017-Aug-13 12:30N 40°40' W 074°00'0 0.0
2017-Aug-13 12:00N 40°40' W 074°00'0 0.0
2017-Aug-13 11:30N 40°40' W 074°00'0 0.0
2017-Aug-13 11:00N 40°40' W 074°00'0 0.0
2017-Aug-13 10:30N 40°40' W 074°00'0 0.0
2017-Aug-13 10:00N 40°40' W 074°00'0 0.0
2017-Aug-13 09:30N 40°40' W 074°00'0 0.0
2017-Aug-13 09:00N 40°40' W 074°00'0 0.0
2017-Aug-13 08:30N 40°40' W 074°00'0 0.0
2017-Aug-13 08:00N 40°40' W 074°00'0 0.0
2017-Aug-13 07:30N 40°40' W 074°00'0 0.0
2017-Aug-13 07:00N 40°40' W 074°00'0 0.0
2017-Aug-13 06:30N 40°40' W 074°00'0 0.0
2017-Aug-13 06:00N 40°40' W 074°00'0 0.0
2017-Aug-13 05:30N 40°40' W 074°00'0 0.0
2017-Aug-13 05:00N 40°40' W 074°00'0 0.0
2017-Aug-13 04:30N 40°40' W 074°00'0 0.0
2017-Aug-13 04:00N 40°40' W 074°00'0 0.0
2017-Aug-13 03:27N 40°40' W 074°00'0 0.0
2017-Aug-13 03:00N 40°40' W 074°00'0 0.0
2017-Aug-13 02:30N 40°40' W 074°00'0 0.0
2017-Aug-13 02:00N 40°40' W 074°00'0 0.0
2017-Aug-13 01:30N 40°40' W 074°00'0 0.0
2017-Aug-13 01:00N 40°40' W 074°00'0 0.0
2017-Aug-13 00:30N 40°40' W 074°00'0 0.0
2017-Aug-13 00:00N 40°40' W 074°00'0 0.0
2017-Aug-12 23:30N 40°40' W 074°00'0 0.0
2017-Aug-12 23:00N 40°40' W 074°00'0 0.0
2017-Aug-12 22:30N 40°40' W 074°00'0 0.0
2017-Aug-12 22:00N 40°40' W 074°00'0 0.0
2017-Aug-12 21:30N 40°40' W 074°00'0 0.0
2017-Aug-12 21:00N 40°40' W 074°00'0 0.0
2017-Aug-12 20:30N 40°40' W 074°00'0 0.0
2017-Aug-12 20:00N 40°40' W 074°00'0 0.0
2017-Aug-12 19:30N 40°40' W 074°00'0 0.0
2017-Aug-12 19:00N 40°40' W 074°00'0 0.0
2017-Aug-12 18:30N 40°40' W 074°00'0 0.0
2017-Aug-12 18:00N 40°40' W 074°00'0 0.0
2017-Aug-12 17:30N 40°40' W 074°00'0 0.0
2017-Aug-12 17:00N 40°40' W 074°00'0 0.0
2017-Aug-12 16:30N 40°40' W 074°00'0 0.0
2017-Aug-12 16:00N 40°40' W 074°00'0 0.0
2017-Aug-12 15:30N 40°40' W 074°00'0 0.0
2017-Aug-12 15:00N 40°40' W 074°00'0 0.0
2017-Aug-12 14:30N 40°40' W 074°00'0 0.0
2017-Aug-12 14:00N 40°40' W 074°00'0 0.0
2017-Aug-12 13:30N 40°40' W 074°00'0 0.0
2017-Aug-12 13:00N 40°40' W 074°00'0 0.0
2017-Aug-12 12:30N 40°40' W 074°00'0 0.0
2017-Aug-12 12:00N 40°40' W 074°00'0 0.0
2017-Aug-12 11:30N 40°40' W 074°00'0 0.0
2017-Aug-12 11:00N 40°40' W 074°00'0 0.0
2017-Aug-12 10:30N 40°40' W 074°00'0 0.0
2017-Aug-12 10:00N 40°40' W 074°00'0 0.0
2017-Aug-12 09:30N 40°40' W 074°00'0 0.0
2017-Aug-12 09:00N 40°40' W 074°00'0 0.0
2017-Aug-12 08:30N 40°40' W 074°00'0 0.0
2017-Aug-12 08:00N 40°40' W 074°00'0 0.0
2017-Aug-12 07:30N 40°40' W 074°00'0 0.0
2017-Aug-12 07:00N 40°40' W 074°00'0 0.0
2017-Aug-12 06:27N 40°40' W 074°00'0 0.0
2017-Aug-12 06:00N 40°40' W 074°00'0 0.0
2017-Aug-12 05:30N 40°40' W 074°00'0 0.0
2017-Aug-12 05:00N 40°40' W 074°00'0 0.0
2017-Aug-12 04:30N 40°40' W 074°00'0 0.0
2017-Aug-12 04:00N 40°40' W 074°00'0 0.0
2017-Aug-12 03:30N 40°40' W 074°00'0 0.0
2017-Aug-12 03:00N 40°40' W 074°00'0 0.0
2017-Aug-12 02:30N 40°40' W 074°00'0 0.0
2017-Aug-12 02:00N 40°40' W 074°00'0 0.0
2017-Aug-12 01:30N 40°40' W 074°00'0 0.0
2017-Aug-12 01:00N 40°40' W 074°00'0 0.0
2017-Aug-12 00:30N 40°40' W 074°00'0 0.0
2017-Aug-12 00:00N 40°40' W 074°00'0 0.0
2017-Aug-11 23:30N 40°40' W 074°00'0 0.0
2017-Aug-11 23:00N 40°40' W 074°00'0 0.0
2017-Aug-11 22:30N 40°40' W 074°00'0 0.0
2017-Aug-11 22:00N 40°40' W 074°00'0 0.0
2017-Aug-11 21:30N 40°40' W 074°00'0 0.0
2017-Aug-11 21:00N 40°40' W 074°00'0 0.0
2017-Aug-11 20:30N 40°40' W 074°00'0 0.0
2017-Aug-11 20:00N 40°40' W 074°00'0 0.0
2017-Aug-11 19:30N 40°40' W 074°00'0 0.0
2017-Aug-11 19:00N 40°40' W 074°00'0 0.0
2017-Aug-11 18:30N 40°40' W 074°00'0 0.0
2017-Aug-11 18:00N 40°40' W 074°00'0 0.0
2017-Aug-11 17:30N 40°40' W 074°00'0 0.0
2017-Aug-11 17:00N 40°40' W 074°00'0 0.0
2017-Aug-11 16:30N 40°40' W 074°00'0 0.0
2017-Aug-11 16:00N 40°40' W 074°00'0 0.0
2017-Aug-11 15:30N 40°40' W 074°00'0 0.0
2017-Aug-11 15:00N 40°40' W 074°00'0 0.0
2017-Aug-11 14:00N 40°40' W 074°00'0 0.0
2017-Aug-11 13:30N 40°40' W 074°00'0 0.0
2017-Aug-11 13:00N 40°40' W 074°00'0 0.2
2017-Aug-11 12:29N 40°40' W 074°00'0 0.0
2017-Aug-11 12:01N 40°40' W 074°00'0 0.2
2017-Aug-11 11:30N 40°40' W 074°00'0 0.0
2017-Aug-11 11:00N 40°40' W 074°00'0 0.0
2017-Aug-11 10:30N 40°40' W 074°00'0 0.0
2017-Aug-11 10:00N 40°40' W 074°00'0 0.0
2017-Aug-11 09:30N 40°40' W 074°00'0 0.0
2017-Aug-11 09:00N 40°40' W 074°00'0 0.0
2017-Aug-11 08:30N 40°40' W 074°00'0 0.0
2017-Aug-11 08:00N 40°40' W 074°00'  

Dump ship's entire track history